Charlottesville, VA (22902)

4:56 PM EDT on September 24, 2016 (GMT -0400)
Carters Mountain | | Change Station

Elev 1125 ft 37.99 °N, 78.47 °W | Updated 11 seconds ago

Clear
Clear
78.0 °F
Feels Like 80 °F
N
6.1
Wind Variable Wind from East
Gusts 9.0 mph

Today
High -- | Low -- °F
--% Chance of Precip.
Yesterday
High -- | Low -- °F
Precip. -- in
Pressure 30.01 in
Visibility 10.0 miles
Clouds Clear
Heat Index 80 °F
Dew Point 68 °F
Humidity 71%
Rainfall 0.00 in
Snow Depth Not available.
7:03 AM 7:06 PM
Waning Crescent, 34% visible
METAR KCHO 242053Z 13006KT 10SM CLR 29/19 A3004 RMK AO2 SLP163 T02940194 56006
Pressure 30.01 in
Visibility 10.0 miles
Clouds Clear
Heat Index 80 °F
Dew Point 68 °F
Humidity 71%
Rainfall 0.00 in
Snow Depth Not available.
7:03 AM 7:06 PM
Waning Crescent, 34% visible
METAR KCHO 242053Z 13006KT 10SM CLR 29/19 A3004 RMK AO2 SLP163 T02940194 56006

10-Day Weather Forecast

Almanac

Astronomy

Sep. 24, 2016 Rise Set
Actual Time
Civil Twilight
Nautical Twilight
Astronomical Twilight
Moon
Length of Visible Light
Length of Day
Tomorrow will be .
, % of the Moon is Illuminated

Today's Extremes

State Highs State Lows

Community

WunderPhotos

Upload Photos

1,941,423 photos uploaded!

WunderBlog® & News

Nearby

Air Quality

  Air Quality AQ Index Pollutant
Not available.

Snow Depth

Station Depth Elevation

Earthquake Activity

City Distance Mag. Time & Date
Minimum magnitude displayed is 2.5.

Coastal Water Temperatures

Place Temperature

Stations

Nearby Weather Stations

Station Location Temp. Windchill Dew Point Humidity Wind Precip. Elev Updated Type
                   

Watches & Warnings

There are currently no watches in effect.